createdAt,value
2019-04-30T04:01:05.490Z,7.82
2019-04-30T04:02:05.676Z,7.82
2019-04-30T04:03:05.831Z,7.77
2019-04-30T04:04:05.979Z,7.77
2019-04-30T04:05:06.160Z,7.76
2019-04-30T04:06:06.313Z,7.75
2019-04-30T04:07:06.462Z,7.79
2019-04-30T04:08:09.422Z,7.77
2019-04-30T04:09:06.826Z,7.79
2019-04-30T04:10:09.612Z,7.67
2019-04-30T04:11:10.008Z,7.67
2019-04-30T04:12:09.607Z,7.70
2019-04-30T04:13:07.435Z,7.72
2019-04-30T04:14:09.338Z,7.76
2019-04-30T04:15:10.197Z,7.70
2019-04-30T04:16:09.690Z,7.77
2019-04-30T04:17:09.887Z,7.70
2019-04-30T04:18:10.652Z,7.70
2019-04-30T04:19:09.630Z,7.76
2019-04-30T04:20:10.635Z,7.61
2019-04-30T04:21:16.010Z,7.69
2019-04-30T04:22:11.932Z,7.61
2019-04-30T04:23:09.641Z,7.69
2019-04-30T04:24:10.577Z,7.70
2019-04-30T04:25:10.097Z,7.77
2019-04-30T04:26:09.654Z,7.75
2019-04-30T04:27:09.797Z,7.72
2019-04-30T04:28:10.222Z,7.70
2019-04-30T04:29:12.518Z,7.69
2019-04-30T04:30:10.794Z,7.66
2019-04-30T04:31:10.337Z,7.66
2019-04-30T04:32:10.782Z,7.72
2019-04-30T04:33:10.640Z,7.66
2019-04-30T04:34:10.815Z,7.63
2019-04-30T04:35:12.787Z,7.56
2019-04-30T04:36:11.156Z,7.53
2019-04-30T04:37:11.274Z,7.60
2019-04-30T04:38:12.701Z,7.66
2019-04-30T04:39:11.696Z,7.60
2019-04-30T04:40:11.824Z,7.57
2019-04-30T04:41:11.972Z,7.69
2019-04-30T04:42:12.173Z,7.63
2019-04-30T04:43:12.302Z,7.75
2019-04-30T04:44:13.141Z,7.77
2019-04-30T04:45:12.664Z,7.80
2019-04-30T04:46:12.818Z,7.88
2019-04-30T04:47:16.007Z,7.97
2019-04-30T04:48:13.129Z,7.82
2019-04-30T04:49:13.297Z,7.98
2019-04-30T04:50:13.429Z,7.94
2019-04-30T04:51:27.885Z,7.98
2019-04-30T04:52:13.745Z,7.97
2019-04-30T04:53:13.938Z,7.93
2019-04-30T04:54:14.067Z,7.98
2019-04-30T04:55:14.225Z,7.83
2019-04-30T04:56:14.380Z,7.97
2019-04-30T04:57:18.261Z,8.00
2019-04-30T04:58:14.730Z,7.94
2019-04-30T04:59:14.858Z,8.08
2019-04-30T05:00:15.034Z,8.08
2019-04-30T05:01:15.221Z,8.03
2019-04-30T05:02:15.363Z,8.15
2019-04-30T05:03:15.571Z,8.13
2019-04-30T05:04:15.696Z,8.23
2019-04-30T05:05:15.851Z,8.09
2019-04-30T05:06:16.035Z,8.15
2019-04-30T05:07:16.183Z,8.18
2019-04-30T05:08:16.335Z,8.24
2019-04-30T05:09:16.505Z,8.10
2019-04-30T05:10:16.681Z,8.16
2019-04-30T05:11:16.829Z,8.28
2019-04-30T05:12:18.522Z,8.23
2019-04-30T05:13:19.077Z,8.19
2019-04-30T05:14:19.038Z,8.26
2019-04-30T05:15:19.323Z,8.28
2019-04-30T05:16:19.130Z,8.31
2019-04-30T05:17:19.488Z,8.26
2019-04-30T05:18:19.132Z,8.27
2019-04-30T05:19:18.692Z,8.28
2019-04-30T05:20:19.420Z,8.27
2019-04-30T05:21:18.911Z,8.26
2019-04-30T05:22:19.029Z,8.33
2019-04-30T05:23:21.554Z,8.37
2019-04-30T05:24:19.098Z,8.33
2019-04-30T05:25:19.089Z,8.42
2019-04-30T05:27:51.327Z,8.51
2019-04-30T05:28:52.884Z,8.51
2019-04-30T05:29:51.656Z,8.52
2019-04-30T05:30:51.828Z,8.46
2019-04-30T05:31:51.999Z,8.58
2019-04-30T05:32:52.181Z,8.61
2019-04-30T05:33:52.330Z,8.64
2019-04-30T05:34:52.510Z,8.70
2019-04-30T05:35:52.679Z,8.61
2019-04-30T05:36:52.817Z,8.76
2019-04-30T05:37:53.399Z,8.78
2019-04-30T05:38:53.282Z,8.95
2019-04-30T05:39:53.424Z,8.92
2019-04-30T05:40:53.666Z,8.87
2019-04-30T05:41:53.708Z,8.95
2019-04-30T05:42:53.866Z,9.06
2019-04-30T05:43:54.015Z,9.10
2019-04-30T05:44:54.196Z,9.18
2019-04-30T05:45:54.330Z,9.25
2019-04-30T05:46:54.502Z,9.26
2019-04-30T05:47:54.666Z,9.31
2019-04-30T05:48:54.843Z,9.44
2019-04-30T05:49:55.008Z,9.41
2019-04-30T05:50:56.278Z,9.41
2019-04-30T05:51:55.989Z,9.54
2019-04-30T05:52:55.545Z,9.55
2019-04-30T05:53:55.767Z,9.64
2019-04-30T05:54:55.883Z,9.56
2019-04-30T05:55:56.041Z,9.69
2019-04-30T05:56:56.399Z,9.77
2019-04-30T05:57:58.770Z,9.77
2019-04-30T05:58:56.636Z,9.77
2019-04-30T05:59:58.485Z,9.84
2019-04-30T06:00:56.936Z,9.86
2019-04-30T06:01:59.109Z,9.87
2019-04-30T06:02:57.219Z,9.95
2019-04-30T06:03:59.144Z,9.92
2019-04-30T06:04:58.770Z,10.01
2019-04-30T06:05:58.969Z,10.01
2019-04-30T06:06:58.705Z,10.12
2019-04-30T06:07:59.303Z,10.19
2019-04-30T06:09:06.175Z,10.23
2019-04-30T06:09:59.681Z,10.35
2019-04-30T06:10:59.707Z,10.31
2019-04-30T06:11:59.109Z,10.35
2019-04-30T06:12:59.464Z,10.34
2019-04-30T06:13:59.039Z,10.44
2019-04-30T06:14:59.196Z,10.37
2019-04-30T06:15:59.356Z,10.34
2019-04-30T06:16:59.764Z,10.31
2019-04-30T06:18:06.823Z,10.28
2019-04-30T06:18:59.866Z,10.37
2019-04-30T06:20:00.032Z,10.35
2019-04-30T06:21:00.230Z,10.46
2019-04-30T06:22:07.549Z,10.60
2019-04-30T06:23:00.560Z,10.67
2019-04-30T06:24:00.745Z,10.61
2019-04-30T06:25:00.874Z,10.67
2019-04-30T06:26:09.326Z,10.75
2019-04-30T06:27:01.187Z,10.75
2019-04-30T06:28:01.328Z,10.75
2019-04-30T06:29:01.496Z,10.92
2019-04-30T06:30:01.703Z,10.84
2019-04-30T06:31:01.820Z,10.82
2019-04-30T06:32:01.965Z,10.90
2019-04-30T06:33:02.148Z,10.97
2019-04-30T06:34:02.337Z,11.00
2019-04-30T06:35:02.476Z,11.08
2019-04-30T06:36:02.630Z,11.19
2019-04-30T06:37:02.797Z,11.18
2019-04-30T06:38:02.941Z,11.23
2019-04-30T06:39:03.118Z,11.35
2019-04-30T06:40:03.267Z,11.29
2019-04-30T06:41:03.426Z,11.36
2019-04-30T06:42:06.450Z,11.43
2019-04-30T06:43:03.773Z,11.51
2019-04-30T06:44:03.931Z,11.45
2019-04-30T06:45:04.083Z,11.47
2019-04-30T06:46:04.238Z,11.43
2019-04-30T06:47:04.411Z,11.50
2019-04-30T06:48:04.601Z,11.62
2019-04-30T06:49:04.732Z,11.52
2019-04-30T06:50:04.914Z,11.69
2019-04-30T06:51:05.068Z,11.57
2019-04-30T06:52:17.489Z,11.70
2019-04-30T06:53:05.396Z,11.70
2019-04-30T06:54:05.561Z,11.80
2019-04-30T06:55:05.803Z,11.80
2019-04-30T06:56:05.895Z,11.97
2019-04-30T06:57:06.056Z,12.06
2019-04-30T06:58:14.245Z,12.17
2019-04-30T06:59:06.391Z,12.20
2019-04-30T07:00:06.563Z,12.07
2019-04-30T07:01:06.743Z,12.03
2019-04-30T07:02:08.966Z,12.24
2019-04-30T07:03:09.377Z,12.39
2019-04-30T07:04:07.247Z,12.37
2019-04-30T07:05:09.983Z,12.42
2019-04-30T07:06:08.419Z,12.40
2019-04-30T07:07:09.102Z,12.39
2019-04-30T07:08:09.905Z,12.43
2019-04-30T07:09:08.859Z,12.43
2019-04-30T07:10:10.193Z,12.60
2019-04-30T07:11:11.128Z,12.68
2019-04-30T07:12:09.131Z,12.73
2019-04-30T07:13:08.831Z,12.72
2019-04-30T07:14:09.701Z,12.73
2019-04-30T07:15:09.125Z,12.76
2019-04-30T07:16:11.036Z,12.68
2019-04-30T07:17:09.577Z,12.83
2019-04-30T07:18:09.637Z,12.90
2019-04-30T07:19:09.804Z,12.90
2019-04-30T07:20:10.454Z,12.95
2019-04-30T07:21:10.147Z,13.04
2019-04-30T07:22:10.331Z,13.01
2019-04-30T07:23:10.487Z,13.09
2019-04-30T07:24:10.658Z,13.12
2019-04-30T07:25:10.830Z,13.12
2019-04-30T07:26:13.738Z,13.13
2019-04-30T07:27:11.164Z,13.22
2019-04-30T07:28:11.335Z,13.23
2019-04-30T07:29:11.505Z,13.25
2019-04-30T07:30:11.677Z,13.25
2019-04-30T07:31:14.494Z,13.35
2019-04-30T07:32:12.014Z,13.23
2019-04-30T07:33:12.183Z,13.54
2019-04-30T07:34:12.359Z,13.52
2019-04-30T07:35:12.531Z,13.62
2019-04-30T07:36:12.739Z,13.56
2019-04-30T07:37:20.471Z,13.74
2019-04-30T07:38:13.035Z,13.68
2019-04-30T07:39:13.205Z,13.70
2019-04-30T07:40:13.377Z,13.60
2019-04-30T07:41:13.548Z,13.67
2019-04-30T07:42:13.718Z,13.71
2019-04-30T07:43:13.891Z,13.70
2019-04-30T07:44:30.073Z,13.97
2019-04-30T07:45:14.235Z,14.22
2019-04-30T07:46:14.412Z,14.36
2019-04-30T07:47:14.581Z,14.51
2019-04-30T07:48:14.752Z,14.85
2019-04-30T07:49:14.924Z,15.15
2019-04-30T07:50:15.566Z,15.46
2019-04-30T07:51:16.057Z,15.72
2019-04-30T07:52:16.180Z,16.12
2019-04-30T07:53:15.610Z,16.32
2019-04-30T07:54:15.784Z,16.53
2019-04-30T07:55:15.953Z,16.69
2019-04-30T07:56:25.841Z,16.89
2019-04-30T07:57:16.294Z,17.02
2019-04-30T07:58:16.469Z,17.30
2019-04-30T07:59:16.635Z,17.42
2019-04-30T08:00:16.809Z,17.64
2019-04-30T08:01:19.409Z,17.67
2019-04-30T08:02:17.151Z,17.59
2019-04-30T08:03:20.083Z,17.92
2019-04-30T08:04:18.822Z,17.80
2019-04-30T08:05:19.799Z,17.94
2019-04-30T08:06:18.904Z,18.40
2019-04-30T08:07:19.894Z,18.62
2019-04-30T08:08:25.105Z,18.74
2019-04-30T08:09:19.602Z,18.73
2019-04-30T08:10:18.870Z,18.95
2019-04-30T08:11:25.774Z,19.14
2019-04-30T08:12:25.973Z,19.14
2019-04-30T08:13:21.885Z,19.62
2019-04-30T08:14:21.188Z,19.62
2019-04-30T08:15:19.906Z,19.52
2019-04-30T08:16:19.567Z,19.74
2019-04-30T08:17:19.736Z,19.76
2019-04-30T08:18:19.906Z,19.91
2019-04-30T08:19:20.083Z,20.16
2019-04-30T08:20:20.258Z,20.36
2019-04-30T08:21:20.428Z,20.29
2019-04-30T08:22:20.597Z,19.96
2019-04-30T08:23:34.073Z,20.13
2019-04-30T08:24:20.945Z,19.84
2019-04-30T08:25:22.046Z,19.89
2019-04-30T08:26:21.291Z,19.95
2019-04-30T08:27:21.468Z,20.16
2019-04-30T08:28:21.636Z,20.39
2019-04-30T08:29:21.813Z,20.60
2019-04-30T08:30:26.673Z,20.78
2019-04-30T08:31:22.159Z,20.99
2019-04-30T08:32:22.333Z,21.07
2019-04-30T08:33:22.504Z,21.00
2019-04-30T08:34:22.676Z,20.88
2019-04-30T08:35:22.855Z,21.11
2019-04-30T08:36:23.029Z,21.37
2019-04-30T08:37:23.201Z,21.45
2019-04-30T08:38:23.382Z,21.36
2019-04-30T08:39:23.556Z,21.33
2019-04-30T08:40:23.738Z,21.52
2019-04-30T08:41:23.899Z,21.39
2019-04-30T08:42:31.616Z,21.50
2019-04-30T08:43:24.247Z,21.72
2019-04-30T08:44:24.427Z,21.80
2019-04-30T08:45:24.596Z,22.11
2019-04-30T08:46:24.768Z,22.47
2019-04-30T08:47:24.948Z,21.79
2019-04-30T08:48:25.117Z,21.80
2019-04-30T08:49:25.453Z,21.35
2019-04-30T08:50:25.478Z,21.33
2019-04-30T08:51:25.642Z,21.05
2019-04-30T08:52:25.831Z,21.00
2019-04-30T08:53:29.913Z,21.11
2019-04-30T08:54:26.159Z,20.55
2019-04-30T08:55:26.332Z,20.63
2019-04-30T08:56:26.508Z,20.95
2019-04-30T08:57:26.684Z,21.30
2019-04-30T08:58:29.050Z,21.48
2019-04-30T08:59:27.023Z,21.45
2019-04-30T09:00:27.199Z,21.02
2019-04-30T09:01:29.229Z,21.03
2019-04-30T09:02:28.975Z,20.81
2019-04-30T09:03:29.554Z,20.66
2019-04-30T09:04:29.040Z,20.67
2019-04-30T09:05:30.063Z,20.65
2019-04-30T09:06:29.121Z,20.52
2019-04-30T09:07:29.718Z,20.44
2019-04-30T09:08:29.430Z,20.40
2019-04-30T09:09:29.538Z,20.41
2019-04-30T09:10:29.395Z,20.50
2019-04-30T09:11:35.576Z,20.39
2019-04-30T09:12:29.957Z,20.28
2019-04-30T09:13:29.457Z,20.22
2019-04-30T09:14:29.975Z,20.25
2019-04-30T09:15:29.814Z,19.86
2019-04-30T09:16:30.027Z,19.85
2019-04-30T09:17:30.157Z,19.79
2019-04-30T09:18:30.329Z,19.70
2019-04-30T09:19:30.503Z,19.64
2019-04-30T09:20:30.676Z,19.56
2019-04-30T09:21:30.850Z,19.41
2019-04-30T09:22:31.023Z,19.59
2019-04-30T09:23:43.323Z,19.70
2019-04-30T09:24:31.365Z,19.92
2019-04-30T09:25:31.544Z,19.91
2019-04-30T09:26:31.730Z,19.86
2019-04-30T09:27:31.890Z,19.88
2019-04-30T09:28:32.062Z,20.25
2019-04-30T09:29:32.236Z,20.11
2019-04-30T09:30:32.414Z,20.41
2019-04-30T09:31:32.591Z,20.60
2019-04-30T09:32:32.764Z,20.93
2019-04-30T09:33:32.941Z,21.32
2019-04-30T09:34:33.118Z,21.62
2019-04-30T09:35:33.293Z,21.51
2019-04-30T09:36:33.467Z,21.82
2019-04-30T09:37:33.641Z,22.02
2019-04-30T09:38:33.818Z,22.54
2019-04-30T09:39:33.992Z,22.59
2019-04-30T09:40:34.167Z,22.75
2019-04-30T09:41:34.335Z,22.65
2019-04-30T09:42:34.510Z,22.73
2019-04-30T09:43:34.685Z,22.99
2019-04-30T09:44:34.856Z,23.40
2019-04-30T09:45:35.026Z,23.62
2019-04-30T09:46:35.194Z,23.71
2019-04-30T09:47:35.366Z,23.83
2019-04-30T09:48:35.535Z,23.77
2019-04-30T09:49:35.710Z,24.24
2019-04-30T09:50:36.104Z,24.21
2019-04-30T09:51:36.057Z,23.92
2019-04-30T09:52:37.376Z,24.18
2019-04-30T09:53:36.426Z,24.21
2019-04-30T09:54:36.601Z,24.40
2019-04-30T09:55:36.763Z,24.29
2019-04-30T09:56:36.940Z,24.40
2019-04-30T09:57:38.877Z,24.54
2019-04-30T09:58:39.232Z,24.54
2019-04-30T09:59:38.795Z,24.73
2019-04-30T10:00:39.300Z,24.89
2019-04-30T10:01:37.817Z,24.61
2019-04-30T10:02:38.861Z,24.68
2019-04-30T10:03:38.976Z,24.80
2019-04-30T10:04:39.727Z,24.89
2019-04-30T10:05:39.127Z,24.88
2019-04-30T10:06:40.227Z,24.73
2019-04-30T10:07:39.425Z,24.81
2019-04-30T10:08:48.210Z,24.91
2019-04-30T10:09:39.227Z,24.66
2019-04-30T10:10:39.401Z,24.84
2019-04-30T10:11:39.579Z,24.95
2019-04-30T10:12:39.755Z,25.07
2019-04-30T10:13:39.922Z,25.31
2019-04-30T10:14:41.029Z,25.18
2019-04-30T10:15:40.265Z,25.08
2019-04-30T10:16:40.438Z,24.01
2019-04-30T10:17:40.625Z,24.08
2019-04-30T10:18:40.797Z,24.30
2019-04-30T10:19:40.973Z,24.68
2019-04-30T10:20:41.154Z,24.77
2019-04-30T10:21:41.326Z,24.23
2019-04-30T10:22:41.513Z,24.20
2019-04-30T10:23:41.681Z,24.47
2019-04-30T10:24:41.864Z,24.73
2019-04-30T10:25:42.045Z,24.84
2019-04-30T10:26:42.223Z,24.45
2019-04-30T10:27:42.401Z,24.54
2019-04-30T10:28:42.601Z,24.74
2019-04-30T10:29:42.754Z,24.76
2019-04-30T10:30:42.931Z,24.85
2019-04-30T10:31:43.112Z,24.73
2019-04-30T10:32:43.297Z,24.86
2019-04-30T10:33:43.468Z,24.76
2019-04-30T10:34:43.649Z,24.86
2019-04-30T10:35:43.826Z,24.88
2019-04-30T10:36:44.006Z,24.65
2019-04-30T10:37:44.186Z,24.74
2019-04-30T10:38:44.363Z,24.55
2019-04-30T10:39:44.544Z,24.58
2019-04-30T10:40:44.726Z,24.77
2019-04-30T10:41:44.902Z,25.04
2019-04-30T10:42:45.083Z,24.89
2019-04-30T10:43:45.258Z,25.17
2019-04-30T10:44:45.454Z,25.06
2019-04-30T10:45:45.615Z,25.14
2019-04-30T10:46:45.794Z,25.32
2019-04-30T10:47:45.972Z,25.41
2019-04-30T10:48:46.151Z,25.65
2019-04-30T10:49:46.329Z,25.84
2019-04-30T10:50:46.508Z,25.85
2019-04-30T10:51:46.687Z,25.73
2019-04-30T10:52:46.870Z,25.78
2019-04-30T10:53:48.625Z,25.77
2019-04-30T10:54:47.227Z,25.68
2019-04-30T10:55:48.604Z,25.60
2019-04-30T10:56:51.140Z,25.51
2019-04-30T10:57:49.553Z,25.51
2019-04-30T10:58:47.939Z,25.68
2019-04-30T10:59:48.745Z,25.84
2019-04-30T11:00:49.875Z,25.98
2019-04-30T11:01:49.273Z,25.69
2019-04-30T11:02:49.646Z,25.62
2019-04-30T11:03:48.835Z,26.00
2019-04-30T11:04:49.007Z,25.68
2019-04-30T11:05:49.189Z,26.10
2019-04-30T11:06:49.371Z,26.37
2019-04-30T11:07:49.595Z,26.60
2019-04-30T11:08:49.731Z,26.99
2019-04-30T11:09:49.911Z,26.07
2019-04-30T11:10:50.092Z,26.37
2019-04-30T11:11:50.271Z,26.15
2019-04-30T11:12:50.447Z,26.33
2019-04-30T11:13:50.627Z,26.43
2019-04-30T11:14:50.801Z,26.43
2019-04-30T11:15:50.985Z,26.03
2019-04-30T11:16:51.662Z,25.83
2019-04-30T11:17:51.482Z,25.83
2019-04-30T11:18:51.775Z,25.88
2019-04-30T11:19:51.926Z,26.06
2019-04-30T11:20:52.026Z,26.36
2019-04-30T11:21:52.188Z,26.43
2019-04-30T11:22:54.512Z,26.48
2019-04-30T11:23:52.535Z,26.60
2019-04-30T11:24:58.750Z,26.38
2019-04-30T11:25:53.258Z,26.37
2019-04-30T11:26:53.444Z,26.44
2019-04-30T11:27:53.749Z,26.36
2019-04-30T11:28:53.464Z,26.10
2019-04-30T11:30:00.627Z,26.21
2019-04-30T11:30:53.878Z,26.38
2019-04-30T11:31:54.092Z,26.63
2019-04-30T11:32:54.147Z,26.80
2019-04-30T11:33:54.200Z,26.81
2019-04-30T11:34:54.372Z,26.90
2019-04-30T11:36:02.333Z,27.11
2019-04-30T11:36:54.709Z,27.21
2019-04-30T11:37:54.883Z,27.03
2019-04-30T11:38:55.043Z,26.74
2019-04-30T11:39:55.247Z,26.75
2019-04-30T11:40:55.421Z,26.92
2019-04-30T11:41:55.616Z,27.18
2019-04-30T11:42:55.758Z,26.95
2019-04-30T11:43:55.923Z,27.08
2019-04-30T11:44:56.100Z,27.29
2019-04-30T11:45:56.270Z,27.35
2019-04-30T11:46:56.425Z,27.14
2019-04-30T11:47:56.654Z,27.22
2019-04-30T11:48:58.568Z,27.70
2019-04-30T11:49:56.966Z,27.85
2019-04-30T11:50:57.152Z,27.59
2019-04-30T11:51:57.315Z,28.00
2019-04-30T11:53:13.934Z,27.96
2019-04-30T11:53:59.391Z,28.32
2019-04-30T11:54:59.669Z,28.51
2019-04-30T11:55:59.177Z,28.44
2019-04-30T11:56:58.859Z,28.25
2019-04-30T11:57:59.239Z,28.25
2019-04-30T11:58:58.956Z,27.93
2019-04-30T11:59:58.724Z,27.67
2019-04-30T12:00:59.291Z,27.68
2019-04-30T12:01:59.065Z,27.63
2019-04-30T12:02:59.396Z,27.55
2019-04-30T12:03:59.850Z,27.40
2019-04-30T12:04:59.585Z,27.18
2019-04-30T12:05:59.767Z,27.32
2019-04-30T12:06:59.958Z,27.44
2019-04-30T12:08:00.142Z,27.51
2019-04-30T12:09:00.268Z,27.70
2019-04-30T12:10:00.436Z,27.65
2019-04-30T12:11:00.606Z,28.02
2019-04-30T12:12:00.783Z,27.73
2019-04-30T12:13:00.952Z,27.71
2019-04-30T12:14:01.142Z,27.95
2019-04-30T12:15:02.831Z,28.47
2019-04-30T12:16:01.488Z,28.30
2019-04-30T12:17:01.672Z,28.41
2019-04-30T12:18:01.840Z,28.57
2019-04-30T12:19:01.991Z,29.05
2019-04-30T12:20:02.159Z,29.35
2019-04-30T12:21:02.321Z,29.44
2019-04-30T12:22:02.495Z,28.84
2019-04-30T12:23:02.676Z,29.07
2019-04-30T12:24:02.917Z,29.08
2019-04-30T12:25:05.484Z,29.13
2019-04-30T12:26:03.285Z,28.94
2019-04-30T12:27:03.374Z,28.27
2019-04-30T12:28:03.534Z,27.96
2019-04-30T12:29:03.698Z,28.04
2019-04-30T12:30:03.869Z,28.11
2019-04-30T12:31:05.848Z,28.05
2019-04-30T12:32:04.225Z,28.26
2019-04-30T12:33:04.412Z,27.82
2019-04-30T12:34:04.625Z,28.08
2019-04-30T12:35:04.741Z,27.73
2019-04-30T12:36:06.472Z,27.37
2019-04-30T12:37:05.137Z,27.20
2019-04-30T12:38:05.331Z,27.65
2019-04-30T12:39:05.461Z,27.75
2019-04-30T12:40:05.626Z,28.02
2019-04-30T12:41:05.797Z,27.87
2019-04-30T12:42:05.968Z,28.23
2019-04-30T12:43:06.159Z,28.54
2019-04-30T12:44:06.327Z,28.57
2019-04-30T12:45:06.513Z,28.93
2019-04-30T12:46:06.661Z,28.85
2019-04-30T12:47:06.828Z,28.96
2019-04-30T12:48:07.042Z,28.96
2019-04-30T12:49:07.181Z,29.12
2019-04-30T12:50:09.434Z,29.22
2019-04-30T12:51:07.520Z,28.57
2019-04-30T12:52:08.760Z,28.29
2019-04-30T12:53:09.395Z,28.30
2019-04-30T12:54:08.035Z,28.79
2019-04-30T12:55:15.248Z,28.91
2019-04-30T12:56:08.992Z,29.26
2019-04-30T12:57:10.812Z,29.22
2019-04-30T12:58:09.817Z,29.57
2019-04-30T12:59:08.899Z,28.89
2019-04-30T13:00:09.514Z,29.07
2019-04-30T13:01:09.260Z,29.05
2019-04-30T13:02:09.443Z,29.23
2019-04-30T13:03:09.636Z,28.98
2019-04-30T13:04:09.923Z,29.14
2019-04-30T13:05:09.949Z,28.84
2019-04-30T13:06:11.360Z,28.84
2019-04-30T13:07:11.189Z,28.42
2019-04-30T13:08:10.762Z,27.65
2019-04-30T13:09:11.634Z,27.44
2019-04-30T13:10:11.317Z,27.67
2019-04-30T13:11:13.079Z,28.17
2019-04-30T13:12:11.780Z,28.20
2019-04-30T13:13:11.529Z,28.22
2019-04-30T13:14:12.061Z,28.38
2019-04-30T13:15:11.716Z,28.69
2019-04-30T13:16:11.881Z,28.94
2019-04-30T13:17:12.057Z,28.75
2019-04-30T13:18:12.252Z,28.44
2019-04-30T13:19:12.401Z,28.59
2019-04-30T13:20:21.203Z,29.08
2019-04-30T13:21:12.752Z,29.36
2019-04-30T13:22:12.924Z,29.47
2019-04-30T13:23:13.112Z,29.32
2019-04-30T13:24:13.308Z,29.60
2019-04-30T13:25:13.487Z,29.60
2019-04-30T13:26:13.620Z,29.41
2019-04-30T13:27:13.792Z,28.96
2019-04-30T13:28:13.988Z,28.74
2019-04-30T13:29:14.124Z,29.22
2019-04-30T13:30:14.316Z,28.96
2019-04-30T13:31:14.493Z,28.85
2019-04-30T13:32:14.654Z,28.69
2019-04-30T13:33:14.875Z,27.49
2019-04-30T13:34:15.038Z,26.99
2019-04-30T13:35:15.261Z,27.67
2019-04-30T13:36:15.368Z,27.54
2019-04-30T13:37:15.568Z,27.70
2019-04-30T13:38:15.760Z,27.95
2019-04-30T13:39:15.915Z,28.33
2019-04-30T13:40:16.102Z,28.41
2019-04-30T13:41:16.270Z,28.69
2019-04-30T13:42:18.633Z,29.08
2019-04-30T13:43:16.572Z,29.45
2019-04-30T13:44:16.730Z,29.16
2019-04-30T13:45:18.676Z,29.47
2019-04-30T13:46:18.560Z,29.53
2019-04-30T13:47:19.078Z,29.47
2019-04-30T13:48:17.416Z,29.45
2019-04-30T13:49:17.583Z,29.20
2019-04-30T13:50:19.656Z,29.26
2019-04-30T13:51:17.947Z,29.23
2019-04-30T13:52:18.096Z,29.10
2019-04-30T13:53:18.644Z,28.93
2019-04-30T13:54:18.440Z,28.97
2019-04-30T13:55:19.229Z,29.31
2019-04-30T13:56:20.288Z,29.17
2019-04-30T13:57:18.984Z,29.27
2019-04-30T13:58:19.177Z,29.35
2019-04-30T13:59:19.349Z,29.29
2019-04-30T14:00:19.549Z,28.66
2019-04-30T14:01:21.459Z,27.65
2019-04-30T14:02:19.872Z,26.44
2019-04-30T14:03:20.027Z,25.84
2019-04-30T14:04:20.258Z,25.38
2019-04-30T14:05:20.404Z,25.06
2019-04-30T14:06:20.519Z,25.21
2019-04-30T14:07:20.798Z,24.58
2019-04-30T14:08:20.935Z,24.33
2019-04-30T14:09:21.087Z,25.10
2019-04-30T14:10:21.221Z,25.69
2019-04-30T14:11:21.372Z,25.65
2019-04-30T14:12:21.586Z,25.93
2019-04-30T14:13:21.787Z,25.62
2019-04-30T14:14:21.934Z,26.31
2019-04-30T14:15:22.071Z,26.81
2019-04-30T14:16:22.266Z,27.27
2019-04-30T14:17:22.425Z,27.51
2019-04-30T14:18:30.603Z,27.67
2019-04-30T14:19:22.763Z,27.52
2019-04-30T14:20:22.943Z,26.88
2019-04-30T14:21:34.500Z,26.38
2019-04-30T14:22:23.287Z,26.74
2019-04-30T14:23:23.458Z,27.12
2019-04-30T14:24:23.617Z,27.40
2019-04-30T14:25:23.791Z,27.68
2019-04-30T14:26:23.975Z,28.10
2019-04-30T14:27:24.110Z,28.37
2019-04-30T14:28:24.286Z,28.29
2019-04-30T14:29:24.446Z,28.39
2019-04-30T14:30:24.605Z,28.02
2019-04-30T14:31:26.419Z,28.48
2019-04-30T14:32:24.998Z,28.88
2019-04-30T14:33:26.795Z,28.97
2019-04-30T14:34:25.325Z,29.19
2019-04-30T14:35:25.489Z,29.27
2019-04-30T14:36:25.639Z,29.10
2019-04-30T14:37:25.841Z,28.81
2019-04-30T14:38:25.985Z,28.64
2019-04-30T14:39:26.170Z,28.29
2019-04-30T14:40:26.918Z,28.37
2019-04-30T14:41:26.841Z,28.52
2019-04-30T14:42:27.327Z,28.59
2019-04-30T14:43:29.351Z,28.33
2019-04-30T14:44:31.169Z,28.11
2019-04-30T14:45:27.487Z,28.33
2019-04-30T14:46:29.575Z,27.95
2019-04-30T14:47:30.433Z,27.42
2019-04-30T14:48:30.230Z,27.65
2019-04-30T14:49:28.718Z,27.52
2019-04-30T14:50:28.578Z,27.51
2019-04-30T14:51:28.281Z,27.67
2019-04-30T14:52:29.320Z,27.85
2019-04-30T14:53:30.411Z,28.15
2019-04-30T14:54:28.769Z,28.37
2019-04-30T14:55:29.444Z,28.69
2019-04-30T14:56:29.528Z,28.78
2019-04-30T14:57:29.288Z,28.79
2019-04-30T14:58:29.460Z,28.93
2019-04-30T14:59:29.656Z,28.93
2019-04-30T15:00:31.926Z,28.64
2019-04-30T15:01:29.981Z,28.07
2019-04-30T15:02:30.155Z,28.12
2019-04-30T15:03:30.396Z,27.98
2019-04-30T15:04:30.541Z,27.87
2019-04-30T15:05:38.954Z,27.78
2019-04-30T15:06:30.852Z,26.62
2019-04-30T15:07:31.044Z,25.81
2019-04-30T15:08:31.231Z,25.55
2019-04-30T15:09:31.395Z,25.18
2019-04-30T15:10:31.623Z,24.70
2019-04-30T15:11:31.767Z,24.11
2019-04-30T15:12:31.930Z,23.83
2019-04-30T15:13:32.144Z,23.61
2019-04-30T15:14:32.285Z,23.10
2019-04-30T15:15:32.487Z,22.80
2019-04-30T15:16:32.627Z,22.96
2019-04-30T15:17:32.795Z,22.73
2019-04-30T15:18:32.986Z,23.21
2019-04-30T15:19:33.171Z,23.69
2019-04-30T15:20:33.345Z,23.50
2019-04-30T15:21:33.484Z,23.25
2019-04-30T15:22:33.685Z,23.06
2019-04-30T15:23:33.878Z,23.47
2019-04-30T15:24:34.022Z,23.88
2019-04-30T15:25:34.598Z,24.69
2019-04-30T15:26:34.365Z,25.22
2019-04-30T15:27:34.512Z,25.59
2019-04-30T15:28:34.724Z,25.98
2019-04-30T15:29:34.878Z,25.95
2019-04-30T15:30:34.999Z,25.48
2019-04-30T15:31:35.193Z,25.48
2019-04-30T15:32:35.370Z,25.14
2019-04-30T15:33:35.581Z,24.74
2019-04-30T15:34:35.681Z,23.99
2019-04-30T15:35:35.877Z,24.01
2019-04-30T15:36:36.031Z,24.21
2019-04-30T15:37:36.202Z,24.06
2019-04-30T15:38:36.419Z,24.03
2019-04-30T15:39:36.561Z,24.65
2019-04-30T15:40:38.685Z,24.57
2019-04-30T15:41:36.867Z,23.91
2019-04-30T15:42:37.059Z,23.66
2019-04-30T15:43:37.219Z,24.11
2019-04-30T15:44:42.588Z,24.33
2019-04-30T15:45:39.164Z,23.84
2019-04-30T15:46:37.729Z,23.96
2019-04-30T15:47:38.713Z,24.33
2019-04-30T15:48:38.073Z,24.74
2019-04-30T15:49:38.228Z,24.98
2019-04-30T15:50:39.252Z,25.04
2019-04-30T15:51:38.572Z,24.92
2019-04-30T15:52:38.819Z,24.63
2019-04-30T15:53:38.956Z,24.28
2019-04-30T15:54:39.264Z,24.30
2019-04-30T15:55:39.280Z,24.03
2019-04-30T15:56:40.865Z,24.20
2019-04-30T15:57:39.606Z,23.92
2019-04-30T15:58:39.823Z,23.80
2019-04-30T15:59:39.955Z,23.58
2019-04-30T16:00:40.154Z,23.44
2019-04-30T16:01:40.311Z,23.39
2019-04-30T16:02:40.498Z,23.23
2019-04-30T16:03:40.623Z,23.02
2019-04-30T16:04:40.821Z,22.88
2019-04-30T16:05:40.950Z,22.72
2019-04-30T16:06:41.137Z,22.55
2019-04-30T16:07:41.357Z,22.11
2019-04-30T16:08:41.486Z,22.04
2019-04-30T16:09:41.695Z,22.00
2019-04-30T16:10:41.827Z,21.79
2019-04-30T16:11:41.990Z,21.64
2019-04-30T16:12:42.170Z,21.51
2019-04-30T16:13:42.341Z,21.51
2019-04-30T16:14:42.523Z,21.50
2019-04-30T16:15:42.686Z,21.42
2019-04-30T16:16:42.846Z,21.48
2019-04-30T16:17:43.019Z,21.42
2019-04-30T16:18:43.178Z,21.58
2019-04-30T16:19:43.347Z,21.45
2019-04-30T16:20:43.526Z,21.46
2019-04-30T16:21:43.699Z,21.57
2019-04-30T16:22:43.876Z,21.54
2019-04-30T16:23:44.060Z,21.55
2019-04-30T16:24:44.223Z,21.42
2019-04-30T16:25:44.384Z,21.40
2019-04-30T16:26:49.925Z,21.35
2019-04-30T16:27:44.732Z,21.15
2019-04-30T16:28:44.903Z,21.05
2019-04-30T16:29:45.086Z,20.87
2019-04-30T16:30:45.265Z,20.69
2019-04-30T16:31:45.428Z,20.65
2019-04-30T16:32:45.607Z,20.58
2019-04-30T16:33:45.780Z,20.58
2019-04-30T16:34:45.940Z,20.66
2019-04-30T16:35:46.102Z,20.74
2019-04-30T16:36:46.300Z,20.99
2019-04-30T16:37:46.474Z,20.93
2019-04-30T16:38:48.602Z,20.87
2019-04-30T16:39:46.816Z,20.75
2019-04-30T16:40:48.846Z,20.62
2019-04-30T16:41:48.891Z,20.47
2019-04-30T16:42:48.969Z,20.36
2019-04-30T16:43:48.828Z,20.37
2019-04-30T16:44:47.664Z,20.13
2019-04-30T16:45:49.396Z,19.89
2019-04-30T16:46:49.866Z,19.74
2019-04-30T16:50:20.492Z,19.54
2019-04-30T16:51:20.692Z,19.51
2019-04-30T16:52:20.843Z,19.45
2019-04-30T16:53:21.015Z,19.47
2019-04-30T16:54:21.192Z,19.51
2019-04-30T16:55:21.369Z,19.52
2019-04-30T16:56:21.549Z,19.58
2019-04-30T16:57:21.725Z,19.55
2019-04-30T16:58:21.902Z,19.62
2019-04-30T16:59:22.073Z,19.49
2019-04-30T17:00:22.251Z,19.63
2019-04-30T17:01:22.466Z,19.62
2019-04-30T17:02:22.605Z,19.54
2019-04-30T17:03:22.784Z,19.51